sensor_id;sensor_type;location;lat;lon;timestamp;temperature;humidity
44559;DHT22;30270;40.238;18.256;2022-10-31T00:01:30;18.00;99.90
44559;DHT22;30270;40.238;18.256;2022-10-31T00:03:58;18.00;99.90
44559;DHT22;30270;40.238;18.256;2022-10-31T00:06:26;18.10;99.90
44559;DHT22;30270;40.238;18.256;2022-10-31T00:08:56;18.10;99.90
44559;DHT22;30270;40.238;18.256;2022-10-31T00:11:24;18.10;99.90
44559;DHT22;30270;40.238;18.256;2022-10-31T00:13:52;18.10;99.90
44559;DHT22;30270;40.238;18.256;2022-10-31T00:16:22;18.00;99.90
44559;DHT22;30270;40.238;18.256;2022-10-31T00:18:51;18.00;99.90
44559;DHT22;30270;40.238;18.256;2022-10-31T00:21:20;18.00;99.90
44559;DHT22;30270;40.238;18.256;2022-10-31T00:23:47;18.00;99.90
44559;DHT22;30270;40.238;18.256;2022-10-31T00:26:15;17.90;99.90
44559;DHT22;30270;40.238;18.256;2022-10-31T00:28:43;18.00;99.90
44559;DHT22;30270;40.238;18.256;2022-10-31T00:31:12;18.00;99.90
44559;DHT22;30270;40.238;18.256;2022-10-31T00:33:41;18.00;99.90
44559;DHT22;30270;40.238;18.256;2022-10-31T00:36:12;17.90;99.90
44559;DHT22;30270;40.238;18.256;2022-10-31T00:38:41;17.90;99.90
44559;DHT22;30270;40.238;18.256;2022-10-31T00:41:10;18.00;99.90
44559;DHT22;30270;40.238;18.256;2022-10-31T00:43:41;18.00;99.90
44559;DHT22;30270;40.238;18.256;2022-10-31T00:46:09;17.90;99.90
44559;DHT22;30270;40.238;18.256;2022-10-31T00:48:37;17.90;99.90
44559;DHT22;30270;40.238;18.256;2022-10-31T00:51:05;18.00;99.90
44559;DHT22;30270;40.238;18.256;2022-10-31T00:53:33;18.00;99.90
44559;DHT22;30270;40.238;18.256;2022-10-31T00:56:01;18.00;99.90
44559;DHT22;30270;40.238;18.256;2022-10-31T00:58:29;18.00;99.90
44559;DHT22;30270;40.238;18.256;2022-10-31T01:00:56;18.00;99.90
44559;DHT22;30270;40.238;18.256;2022-10-31T01:03:26;18.00;99.90
44559;DHT22;30270;40.238;18.256;2022-10-31T01:08:25;17.80;99.90
44559;DHT22;30270;40.238;18.256;2022-10-31T01:11:09;17.80;99.90
44559;DHT22;30270;40.238;18.256;2022-10-31T01:13:40;17.90;99.90
44559;DHT22;30270;40.238;18.256;2022-10-31T01:16:10;17.90;99.90
44559;DHT22;30270;40.238;18.256;2022-10-31T01:18:38;17.90;99.90
44559;DHT22;30270;40.238;18.256;2022-10-31T01:21:10;17.90;99.90
44559;DHT22;30270;40.238;18.256;2022-10-31T01:23:38;17.90;99.90
44559;DHT22;30270;40.238;18.256;2022-10-31T01:26:20;17.90;99.90
44559;DHT22;30270;40.238;18.256;2022-10-31T01:28:50;17.90;99.90
44559;DHT22;30270;40.238;18.256;2022-10-31T01:31:20;18.00;99.90
44559;DHT22;30270;40.238;18.256;2022-10-31T01:33:48;17.90;99.90
44559;DHT22;30270;40.238;18.256;2022-10-31T01:38:53;18.00;99.90
44559;DHT22;30270;40.238;18.256;2022-10-31T01:41:24;17.90;99.90
44559;DHT22;30270;40.238;18.256;2022-10-31T01:43:54;17.90;99.90
44559;DHT22;30270;40.238;18.256;2022-10-31T01:46:36;17.90;99.90
44559;DHT22;30270;40.238;18.256;2022-10-31T01:49:10;17.80;99.90
44559;DHT22;30270;40.238;18.256;2022-10-31T01:51:55;17.80;99.90
44559;DHT22;30270;40.238;18.256;2022-10-31T01:54:26;17.80;99.90
44559;DHT22;30270;40.238;18.256;2022-10-31T01:56:58;17.80;99.90
44559;DHT22;30270;40.238;18.256;2022-10-31T01:59:29;17.80;99.90
44559;DHT22;30270;40.238;18.256;2022-10-31T02:01:57;17.90;99.90
44559;DHT22;30270;40.238;18.256;2022-10-31T02:04:26;17.90;99.90
44559;DHT22;30270;40.238;18.256;2022-10-31T02:07:02;17.80;99.90
44559;DHT22;30270;40.238;18.256;2022-10-31T02:09:34;17.70;99.90
44559;DHT22;30270;40.238;18.256;2022-10-31T02:12:04;17.80;99.90
44559;DHT22;30270;40.238;18.256;2022-10-31T02:14:33;17.80;99.90
44559;DHT22;30270;40.238;18.256;2022-10-31T02:17:03;17.80;99.90
44559;DHT22;30270;40.238;18.256;2022-10-31T02:22:29;17.70;99.90
44559;DHT22;30270;40.238;18.256;2022-10-31T02:30:21;17.80;99.90
44559;DHT22;30270;40.238;18.256;2022-10-31T02:33:07;17.80;99.90
44559;DHT22;30270;40.238;18.256;2022-10-31T02:41:48;17.80;99.90
44559;DHT22;30270;40.238;18.256;2022-10-31T02:44:39;17.80;99.90
44559;DHT22;30270;40.238;18.256;2022-10-31T02:47:12;17.80;99.90
44559;DHT22;30270;40.238;18.256;2022-10-31T02:52:33;17.90;99.90
44559;DHT22;30270;40.238;18.256;2022-10-31T02:58:08;17.80;99.90
44559;DHT22;30270;40.238;18.256;2022-10-31T03:09:24;17.90;99.90
44559;DHT22;30270;40.238;18.256;2022-10-31T03:12:28;17.90;99.90
44559;DHT22;30270;40.238;18.256;2022-10-31T03:15:17;17.90;99.90
44559;DHT22;30270;40.238;18.256;2022-10-31T03:20:28;18.00;99.90
44559;DHT22;30270;40.238;18.256;2022-10-31T03:22:58;17.90;99.90
44559;DHT22;30270;40.238;18.256;2022-10-31T03:25:27;18.00;99.90
44559;DHT22;30270;40.238;18.256;2022-10-31T03:27:57;17.90;99.90
44559;DHT22;30270;40.238;18.256;2022-10-31T03:30:30;17.90;99.90
44559;DHT22;30270;40.238;18.256;2022-10-31T03:33:03;17.90;99.90
44559;DHT22;30270;40.238;18.256;2022-10-31T03:35:33;17.90;99.90
44559;DHT22;30270;40.238;18.256;2022-10-31T03:38:03;17.90;99.90
44559;DHT22;30270;40.238;18.256;2022-10-31T03:40:36;17.90;99.90
44559;DHT22;30270;40.238;18.256;2022-10-31T03:43:08;17.90;99.90
44559;DHT22;30270;40.238;18.256;2022-10-31T03:45:44;17.90;99.90
44559;DHT22;30270;40.238;18.256;2022-10-31T03:48:17;17.90;99.90
44559;DHT22;30270;40.238;18.256;2022-10-31T03:53:44;17.90;99.90
44559;DHT22;30270;40.238;18.256;2022-10-31T03:59:14;17.90;99.90
44559;DHT22;30270;40.238;18.256;2022-10-31T04:01:48;17.90;99.90
44559;DHT22;30270;40.238;18.256;2022-10-31T04:04:16;17.90;99.90
44559;DHT22;30270;40.238;18.256;2022-10-31T04:06:49;17.90;99.90
44559;DHT22;30270;40.238;18.256;2022-10-31T04:09:18;17.90;99.90
44559;DHT22;30270;40.238;18.256;2022-10-31T04:11:50;17.90;99.90
44559;DHT22;30270;40.238;18.256;2022-10-31T04:14:44;17.90;99.90
44559;DHT22;30270;40.238;18.256;2022-10-31T04:17:16;17.90;99.90
44559;DHT22;30270;40.238;18.256;2022-10-31T04:19:44;17.90;99.90
44559;DHT22;30270;40.238;18.256;2022-10-31T04:22:12;18.00;99.90
44559;DHT22;30270;40.238;18.256;2022-10-31T04:24:40;17.90;99.90
44559;DHT22;30270;40.238;18.256;2022-10-31T04:27:12;17.90;99.90
44559;DHT22;30270;40.238;18.256;2022-10-31T04:29:40;17.90;99.90
44559;DHT22;30270;40.238;18.256;2022-10-31T04:32:08;17.90;99.90
44559;DHT22;30270;40.238;18.256;2022-10-31T04:34:37;17.90;99.90
44559;DHT22;30270;40.238;18.256;2022-10-31T04:37:04;17.90;99.90
44559;DHT22;30270;40.238;18.256;2022-10-31T04:39:32;17.90;99.90
44559;DHT22;30270;40.238;18.256;2022-10-31T04:42:18;18.00;99.90
44559;DHT22;30270;40.238;18.256;2022-10-31T04:44:46;18.00;99.90
44559;DHT22;30270;40.238;18.256;2022-10-31T04:47:14;18.00;99.90
44559;DHT22;30270;40.238;18.256;2022-10-31T04:49:42;18.00;99.90
44559;DHT22;30270;40.238;18.256;2022-10-31T04:52:12;18.00;99.90
44559;DHT22;30270;40.238;18.256;2022-10-31T04:54:40;18.00;99.90
44559;DHT22;30270;40.238;18.256;2022-10-31T04:57:28;18.10;99.90
44559;DHT22;30270;40.238;18.256;2022-10-31T04:59:58;18.10;99.90
44559;DHT22;30270;40.238;18.256;2022-10-31T05:02:26;18.10;99.90
44559;DHT22;30270;40.238;18.256;2022-10-31T05:04:56;18.10;99.90
44559;DHT22;30270;40.238;18.256;2022-10-31T05:07:24;18.10;99.90
44559;DHT22;30270;40.238;18.256;2022-10-31T05:09:51;18.10;99.90
44559;DHT22;30270;40.238;18.256;2022-10-31T05:12:19;18.10;99.90
44559;DHT22;30270;40.238;18.256;2022-10-31T05:15:06;18.10;99.90
44559;DHT22;30270;40.238;18.256;2022-10-31T05:17:53;18.00;99.90
44559;DHT22;30270;40.238;18.256;2022-10-31T05:20:39;18.00;99.90
44559;DHT22;30270;40.238;18.256;2022-10-31T05:23:14;18.00;99.90
44559;DHT22;30270;40.238;18.256;2022-10-31T05:25:42;18.10;99.90
44559;DHT22;30270;40.238;18.256;2022-10-31T05:28:09;18.10;99.90
44559;DHT22;30270;40.238;18.256;2022-10-31T05:30:37;18.10;99.90
44559;DHT22;30270;40.238;18.256;2022-10-31T05:33:09;18.10;99.90
44559;DHT22;30270;40.238;18.256;2022-10-31T05:35:55;18.10;99.90
44559;DHT22;30270;40.238;18.256;2022-10-31T05:38:52;18.10;99.90
44559;DHT22;30270;40.238;18.256;2022-10-31T05:41:23;18.20;99.90
44559;DHT22;30270;40.238;18.256;2022-10-31T05:43:55;18.20;99.90
44559;DHT22;30270;40.238;18.256;2022-10-31T05:46:27;18.20;99.90
44559;DHT22;30270;40.238;18.256;2022-10-31T05:49:14;18.20;99.90
44559;DHT22;30270;40.238;18.256;2022-10-31T05:52:20;18.30;99.90
44559;DHT22;30270;40.238;18.256;2022-10-31T05:54:58;18.30;99.90
44559;DHT22;30270;40.238;18.256;2022-10-31T05:57:29;18.40;99.90
44559;DHT22;30270;40.238;18.256;2022-10-31T05:59:57;18.40;99.90
44559;DHT22;30270;40.238;18.256;2022-10-31T06:02:25;18.40;99.90
44559;DHT22;30270;40.238;18.256;2022-10-31T06:05:14;18.40;99.90
44559;DHT22;30270;40.238;18.256;2022-10-31T06:07:42;18.50;99.90
44559;DHT22;30270;40.238;18.256;2022-10-31T06:10:10;18.60;99.90
44559;DHT22;30270;40.238;18.256;2022-10-31T06:12:38;18.70;99.90
44559;DHT22;30270;40.238;18.256;2022-10-31T06:15:21;18.70;99.90
44559;DHT22;30270;40.238;18.256;2022-10-31T06:18:04;18.80;99.90
44559;DHT22;30270;40.238;18.256;2022-10-31T06:20:35;18.80;99.90
44559;DHT22;30270;40.238;18.256;2022-10-31T06:23:04;18.90;99.90
44559;DHT22;30270;40.238;18.256;2022-10-31T06:25:34;18.90;99.90
44559;DHT22;30270;40.238;18.256;2022-10-31T06:28:04;18.90;99.90
44559;DHT22;30270;40.238;18.256;2022-10-31T06:31:04;18.90;99.90
44559;DHT22;30270;40.238;18.256;2022-10-31T06:33:33;18.90;99.90
44559;DHT22;30270;40.238;18.256;2022-10-31T06:36:02;19.00;99.90
44559;DHT22;30270;40.238;18.256;2022-10-31T06:38:30;19.00;99.90
44559;DHT22;30270;40.238;18.256;2022-10-31T06:41:02;19.00;99.90
44559;DHT22;30270;40.238;18.256;2022-10-31T06:43:38;19.00;99.90
44559;DHT22;30270;40.238;18.256;2022-10-31T06:46:41;19.10;99.90
44559;DHT22;30270;40.238;18.256;2022-10-31T06:49:27;19.30;99.90
44559;DHT22;30270;40.238;18.256;2022-10-31T06:51:59;19.40;99.90
44559;DHT22;30270;40.238;18.256;2022-10-31T06:54:27;19.60;99.90
44559;DHT22;30270;40.238;18.256;2022-10-31T06:56:54;19.80;99.90
44559;DHT22;30270;40.238;18.256;2022-10-31T06:59:22;20.20;99.90
44559;DHT22;30270;40.238;18.256;2022-10-31T07:02:17;20.60;99.90
44559;DHT22;30270;40.238;18.256;2022-10-31T07:04:44;21.00;99.90
44559;DHT22;30270;40.238;18.256;2022-10-31T07:07:14;21.30;99.90
44559;DHT22;30270;40.238;18.256;2022-10-31T07:09:41;21.30;99.90
44559;DHT22;30270;40.238;18.256;2022-10-31T07:12:10;21.10;99.90
44559;DHT22;30270;40.238;18.256;2022-10-31T07:14:43;21.00;99.90
44559;DHT22;30270;40.238;18.256;2022-10-31T07:17:11;20.90;99.90
44559;DHT22;30270;40.238;18.256;2022-10-31T07:19:42;20.80;99.90
44559;DHT22;30270;40.238;18.256;2022-10-31T07:22:12;20.90;99.90
44559;DHT22;30270;40.238;18.256;2022-10-31T07:24:42;21.00;99.90
44559;DHT22;30270;40.238;18.256;2022-10-31T07:27:15;21.20;99.90
44559;DHT22;30270;40.238;18.256;2022-10-31T07:29:45;21.50;99.90
44559;DHT22;30270;40.238;18.256;2022-10-31T07:32:12;21.90;99.90
44559;DHT22;30270;40.238;18.256;2022-10-31T07:34:46;22.30;99.90
44559;DHT22;30270;40.238;18.256;2022-10-31T07:37:28;22.60;99.90
44559;DHT22;30270;40.238;18.256;2022-10-31T07:39:57;22.60;99.90
44559;DHT22;30270;40.238;18.256;2022-10-31T07:42:25;22.80;99.90
44559;DHT22;30270;40.238;18.256;2022-10-31T07:44:53;23.00;99.90
44559;DHT22;30270;40.238;18.256;2022-10-31T07:50:09;22.90;99.90
44559;DHT22;30270;40.238;18.256;2022-10-31T07:53:06;22.80;99.90
44559;DHT22;30270;40.238;18.256;2022-10-31T07:55:47;22.80;99.90
44559;DHT22;30270;40.238;18.256;2022-10-31T07:58:16;22.90;99.90
44559;DHT22;30270;40.238;18.256;2022-10-31T08:00:46;23.00;99.90
44559;DHT22;30270;40.238;18.256;2022-10-31T08:03:19;23.10;99.90
44559;DHT22;30270;40.238;18.256;2022-10-31T08:06:00;23.10;99.90
44559;DHT22;30270;40.238;18.256;2022-10-31T08:09:03;23.30;99.90
44559;DHT22;30270;40.238;18.256;2022-10-31T08:11:31;23.50;99.90
44559;DHT22;30270;40.238;18.256;2022-10-31T08:14:00;23.50;99.90
44559;DHT22;30270;40.238;18.256;2022-10-31T08:16:28;23.20;99.90
44559;DHT22;30270;40.238;18.256;2022-10-31T08:19:00;23.10;99.90
44559;DHT22;30270;40.238;18.256;2022-10-31T08:21:29;23.20;99.90
44559;DHT22;30270;40.238;18.256;2022-10-31T08:23:58;23.20;99.90
44559;DHT22;30270;40.238;18.256;2022-10-31T08:26:28;23.20;99.90
44559;DHT22;30270;40.238;18.256;2022-10-31T08:28:57;23.30;99.90
44559;DHT22;30270;40.238;18.256;2022-10-31T08:31:28;23.30;99.90
44559;DHT22;30270;40.238;18.256;2022-10-31T08:34:17;23.40;99.90
44559;DHT22;30270;40.238;18.256;2022-10-31T08:37:03;23.70;99.90
44559;DHT22;30270;40.238;18.256;2022-10-31T08:39:40;23.90;99.90
44559;DHT22;30270;40.238;18.256;2022-10-31T08:42:07;24.00;99.90
44559;DHT22;30270;40.238;18.256;2022-10-31T08:44:35;24.00;99.90
44559;DHT22;30270;40.238;18.256;2022-10-31T08:47:03;24.10;99.90
44559;DHT22;30270;40.238;18.256;2022-10-31T08:49:33;24.10;99.90
44559;DHT22;30270;40.238;18.256;2022-10-31T08:52:02;24.30;99.90
44559;DHT22;30270;40.238;18.256;2022-10-31T08:54:34;24.50;99.90
44559;DHT22;30270;40.238;18.256;2022-10-31T08:57:31;24.70;99.90
44559;DHT22;30270;40.238;18.256;2022-10-31T08:59:59;24.80;99.90
44559;DHT22;30270;40.238;18.256;2022-10-31T09:02:46;24.90;99.90
44559;DHT22;30270;40.238;18.256;2022-10-31T09:05:14;25.00;99.90
44559;DHT22;30270;40.238;18.256;2022-10-31T09:07:42;25.20;99.90
44559;DHT22;30270;40.238;18.256;2022-10-31T09:10:10;25.40;99.90
44559;DHT22;30270;40.238;18.256;2022-10-31T09:12:38;25.60;99.90
44559;DHT22;30270;40.238;18.256;2022-10-31T09:15:25;25.70;99.90
44559;DHT22;30270;40.238;18.256;2022-10-31T09:18:12;25.80;99.90
44559;DHT22;30270;40.238;18.256;2022-10-31T09:20:50;25.60;99.90
44559;DHT22;30270;40.238;18.256;2022-10-31T09:23:20;25.70;99.90
44559;DHT22;30270;40.238;18.256;2022-10-31T09:25:50;25.70;99.90
44559;DHT22;30270;40.238;18.256;2022-10-31T09:28:30;25.80;99.90
44559;DHT22;30270;40.238;18.256;2022-10-31T09:31:06;26.00;99.90
44559;DHT22;30270;40.238;18.256;2022-10-31T09:34:00;25.90;99.90
44559;DHT22;30270;40.238;18.256;2022-10-31T09:36:38;26.10;99.90
44559;DHT22;30270;40.238;18.256;2022-10-31T09:39:17;26.10;99.90
44559;DHT22;30270;40.238;18.256;2022-10-31T09:44:58;26.00;99.90
44559;DHT22;30270;40.238;18.256;2022-10-31T09:48:09;25.90;99.90
44559;DHT22;30270;40.238;18.256;2022-10-31T09:56:22;26.30;99.90
44559;DHT22;30270;40.238;18.256;2022-10-31T09:58:56;26.10;99.90
44559;DHT22;30270;40.238;18.256;2022-10-31T10:01:48;26.00;99.90
44559;DHT22;30270;40.238;18.256;2022-10-31T10:04:38;25.90;99.90
44559;DHT22;30270;40.238;18.256;2022-10-31T10:19:13;25.90;99.90
44559;DHT22;30270;40.238;18.256;2022-10-31T10:30:12;25.80;99.90
44559;DHT22;30270;40.238;18.256;2022-10-31T10:32:57;25.80;99.90
44559;DHT22;30270;40.238;18.256;2022-10-31T10:35:45;25.90;99.90
44559;DHT22;30270;40.238;18.256;2022-10-31T10:41:04;25.80;99.90
44559;DHT22;30270;40.238;18.256;2022-10-31T10:43:34;25.80;99.90
44559;DHT22;30270;40.238;18.256;2022-10-31T10:49:41;25.90;99.90
44559;DHT22;30270;40.238;18.256;2022-10-31T10:52:31;25.90;99.90
44559;DHT22;30270;40.238;18.256;2022-10-31T10:58:07;25.90;99.90
44559;DHT22;30270;40.238;18.256;2022-10-31T11:00:45;25.90;99.90
44559;DHT22;30270;40.238;18.256;2022-10-31T11:03:17;25.80;99.90
44559;DHT22;30270;40.238;18.256;2022-10-31T11:05:56;25.80;99.90
44559;DHT22;30270;40.238;18.256;2022-10-31T11:08:34;25.90;99.90
44559;DHT22;30270;40.238;18.256;2022-10-31T11:11:19;25.90;99.90
44559;DHT22;30270;40.238;18.256;2022-10-31T11:13:49;26.10;99.90
44559;DHT22;30270;40.238;18.256;2022-10-31T11:16:37;26.10;99.90
44559;DHT22;30270;40.238;18.256;2022-10-31T11:19:13;26.10;99.90
44559;DHT22;30270;40.238;18.256;2022-10-31T11:21:44;26.10;99.90
44559;DHT22;30270;40.238;18.256;2022-10-31T11:24:15;26.00;99.90
44559;DHT22;30270;40.238;18.256;2022-10-31T11:26:45;25.90;99.90
44559;DHT22;30270;40.238;18.256;2022-10-31T11:29:24;25.90;99.90
44559;DHT22;30270;40.238;18.256;2022-10-31T11:31:54;25.90;99.90
44559;DHT22;30270;40.238;18.256;2022-10-31T11:36:50;25.90;99.90
44559;DHT22;30270;40.238;18.256;2022-10-31T11:39:21;25.90;99.90
44559;DHT22;30270;40.238;18.256;2022-10-31T11:41:51;25.90;99.90
44559;DHT22;30270;40.238;18.256;2022-10-31T11:44:28;25.90;99.90
44559;DHT22;30270;40.238;18.256;2022-10-31T11:47:02;25.90;99.90
44559;DHT22;30270;40.238;18.256;2022-10-31T11:49:39;25.80;99.90
44559;DHT22;30270;40.238;18.256;2022-10-31T11:52:17;25.80;99.90
44559;DHT22;30270;40.238;18.256;2022-10-31T11:54:49;25.70;99.90
44559;DHT22;30270;40.238;18.256;2022-10-31T11:59:56;25.60;99.90
44559;DHT22;30270;40.238;18.256;2022-10-31T12:02:25;25.40;99.90
44559;DHT22;30270;40.238;18.256;2022-10-31T12:05:19;25.20;99.90
44559;DHT22;30270;40.238;18.256;2022-10-31T12:07:48;25.30;99.90
44559;DHT22;30270;40.238;18.256;2022-10-31T12:10:18;25.30;99.90
44559;DHT22;30270;40.238;18.256;2022-10-31T12:13:01;25.30;99.90
44559;DHT22;30270;40.238;18.256;2022-10-31T12:15:34;25.20;99.90
44559;DHT22;30270;40.238;18.256;2022-10-31T12:18:35;25.30;99.90
44559;DHT22;30270;40.238;18.256;2022-10-31T12:27:10;25.30;99.90
44559;DHT22;30270;40.238;18.256;2022-10-31T12:32:54;25.20;99.90
44559;DHT22;30270;40.238;18.256;2022-10-31T12:41:52;24.90;99.90
44559;DHT22;30270;40.238;18.256;2022-10-31T12:44:29;24.80;99.90
44559;DHT22;30270;40.238;18.256;2022-10-31T13:00:17;24.70;99.90
44559;DHT22;30270;40.238;18.256;2022-10-31T13:05:32;24.60;99.90
44559;DHT22;30270;40.238;18.256;2022-10-31T13:08:12;24.50;99.90
44559;DHT22;30270;40.238;18.256;2022-10-31T13:10:50;24.50;99.90
44559;DHT22;30270;40.238;18.256;2022-10-31T13:16:33;24.30;99.90
44559;DHT22;30270;40.238;18.256;2022-10-31T13:22:08;24.10;99.90
44559;DHT22;30270;40.238;18.256;2022-10-31T13:24:43;24.10;99.90
44559;DHT22;30270;40.238;18.256;2022-10-31T13:27:30;24.00;99.90
44559;DHT22;30270;40.238;18.256;2022-10-31T13:30:16;23.90;99.90
44559;DHT22;30270;40.238;18.256;2022-10-31T13:41:22;23.70;99.90
44559;DHT22;30270;40.238;18.256;2022-10-31T13:46:34;23.50;99.90
44559;DHT22;30270;40.238;18.256;2022-10-31T13:49:03;23.40;99.90
44559;DHT22;30270;40.238;18.256;2022-10-31T13:51:33;23.30;99.90
44559;DHT22;30270;40.238;18.256;2022-10-31T13:54:32;23.20;99.90
44559;DHT22;30270;40.238;18.256;2022-10-31T13:57:00;23.20;99.90
44559;DHT22;30270;40.238;18.256;2022-10-31T13:59:36;23.10;99.90
44559;DHT22;30270;40.238;18.256;2022-10-31T14:02:29;23.00;99.90
44559;DHT22;30270;40.238;18.256;2022-10-31T14:05:25;23.10;99.90
44559;DHT22;30270;40.238;18.256;2022-10-31T14:07:54;23.10;99.90
44559;DHT22;30270;40.238;18.256;2022-10-31T14:13:12;23.00;99.90
44559;DHT22;30270;40.238;18.256;2022-10-31T14:15:51;23.00;99.90
44559;DHT22;30270;40.238;18.256;2022-10-31T14:18:32;23.00;99.90
44559;DHT22;30270;40.238;18.256;2022-10-31T14:21:01;22.90;99.90
44559;DHT22;30270;40.238;18.256;2022-10-31T14:23:40;22.90;99.90
44559;DHT22;30270;40.238;18.256;2022-10-31T14:28:48;22.60;99.90
44559;DHT22;30270;40.238;18.256;2022-10-31T14:31:38;22.50;99.90
44559;DHT22;30270;40.238;18.256;2022-10-31T14:51:26;22.20;99.90
44559;DHT22;30270;40.238;18.256;2022-10-31T14:53:57;22.10;99.90
44559;DHT22;30270;40.238;18.256;2022-10-31T14:56:30;22.10;99.90
44559;DHT22;30270;40.238;18.256;2022-10-31T14:59:01;22.00;99.90
44559;DHT22;30270;40.238;18.256;2022-10-31T15:01:30;22.00;99.90
44559;DHT22;30270;40.238;18.256;2022-10-31T15:04:13;21.80;99.90
44559;DHT22;30270;40.238;18.256;2022-10-31T15:07:21;21.90;99.90
44559;DHT22;30270;40.238;18.256;2022-10-31T15:10:02;21.80;99.90
44559;DHT22;30270;40.238;18.256;2022-10-31T15:12:35;21.70;99.90
44559;DHT22;30270;40.238;18.256;2022-10-31T15:17:45;21.90;99.90
44559;DHT22;30270;40.238;18.256;2022-10-31T15:20:32;21.80;99.90
44559;DHT22;30270;40.238;18.256;2022-10-31T15:23:01;21.80;99.90
44559;DHT22;30270;40.238;18.256;2022-10-31T15:25:33;21.80;99.90
44559;DHT22;30270;40.238;18.256;2022-10-31T15:28:01;21.80;99.90
44559;DHT22;30270;40.238;18.256;2022-10-31T15:30:29;21.80;99.90
44559;DHT22;30270;40.238;18.256;2022-10-31T15:32:57;21.70;99.90
44559;DHT22;30270;40.238;18.256;2022-10-31T15:35:30;21.70;99.90
44559;DHT22;30270;40.238;18.256;2022-10-31T15:37:58;21.70;99.90
44559;DHT22;30270;40.238;18.256;2022-10-31T15:40:28;21.60;99.90
44559;DHT22;30270;40.238;18.256;2022-10-31T15:42:59;21.60;99.90
44559;DHT22;30270;40.238;18.256;2022-10-31T15:45:28;21.50;99.90
44559;DHT22;30270;40.238;18.256;2022-10-31T15:48:00;21.50;99.90
44559;DHT22;30270;40.238;18.256;2022-10-31T15:50:37;21.50;99.90
44559;DHT22;30270;40.238;18.256;2022-10-31T15:53:16;21.40;99.90
44559;DHT22;30270;40.238;18.256;2022-10-31T15:55:49;21.40;99.90
44559;DHT22;30270;40.238;18.256;2022-10-31T15:58:18;21.30;99.90
44559;DHT22;30270;40.238;18.256;2022-10-31T16:01:00;21.30;99.90
44559;DHT22;30270;40.238;18.256;2022-10-31T16:03:30;21.30;99.90
44559;DHT22;30270;40.238;18.256;2022-10-31T16:06:00;21.20;99.90
44559;DHT22;30270;40.238;18.256;2022-10-31T16:08:32;21.20;99.90
44559;DHT22;30270;40.238;18.256;2022-10-31T16:13:39;21.20;99.90
44559;DHT22;30270;40.238;18.256;2022-10-31T16:16:13;21.20;99.90
44559;DHT22;30270;40.238;18.256;2022-10-31T16:19:01;21.20;99.90
44559;DHT22;30270;40.238;18.256;2022-10-31T16:21:32;21.10;99.90
44559;DHT22;30270;40.238;18.256;2022-10-31T16:24:04;21.10;99.90
44559;DHT22;30270;40.238;18.256;2022-10-31T16:26:33;21.10;99.90
44559;DHT22;30270;40.238;18.256;2022-10-31T16:29:01;21.10;99.90
44559;DHT22;30270;40.238;18.256;2022-10-31T16:31:39;21.10;99.90
44559;DHT22;30270;40.238;18.256;2022-10-31T16:34:23;21.00;99.90
44559;DHT22;30270;40.238;18.256;2022-10-31T16:36:52;21.00;99.90
44559;DHT22;30270;40.238;18.256;2022-10-31T16:39:20;21.00;99.90
44559;DHT22;30270;40.238;18.256;2022-10-31T16:41:51;21.00;99.90
44559;DHT22;30270;40.238;18.256;2022-10-31T16:44:23;20.90;99.90
44559;DHT22;30270;40.238;18.256;2022-10-31T16:49:34;20.90;99.90
44559;DHT22;30270;40.238;18.256;2022-10-31T16:52:02;20.90;99.90
44559;DHT22;30270;40.238;18.256;2022-10-31T16:54:29;20.90;99.90
44559;DHT22;30270;40.238;18.256;2022-10-31T16:57:02;20.90;99.90
44559;DHT22;30270;40.238;18.256;2022-10-31T16:59:31;20.90;99.90
44559;DHT22;30270;40.238;18.256;2022-10-31T17:02:01;20.90;99.90
44559;DHT22;30270;40.238;18.256;2022-10-31T17:04:31;20.80;99.90
44559;DHT22;30270;40.238;18.256;2022-10-31T17:06:58;20.80;99.90
44559;DHT22;30270;40.238;18.256;2022-10-31T17:09:26;20.80;99.90
44559;DHT22;30270;40.238;18.256;2022-10-31T17:11:54;20.80;99.90
44559;DHT22;30270;40.238;18.256;2022-10-31T17:14:22;20.70;99.90
44559;DHT22;30270;40.238;18.256;2022-10-31T17:16:49;20.60;99.90
44559;DHT22;30270;40.238;18.256;2022-10-31T17:19:17;20.60;99.90
44559;DHT22;30270;40.238;18.256;2022-10-31T17:21:45;20.60;99.90
44559;DHT22;30270;40.238;18.256;2022-10-31T17:24:13;20.60;99.90
44559;DHT22;30270;40.238;18.256;2022-10-31T17:26:42;20.50;99.90
44559;DHT22;30270;40.238;18.256;2022-10-31T17:29:09;20.50;99.90
44559;DHT22;30270;40.238;18.256;2022-10-31T17:31:37;20.50;99.90
44559;DHT22;30270;40.238;18.256;2022-10-31T17:34:05;20.50;99.90
44559;DHT22;30270;40.238;18.256;2022-10-31T17:36:34;20.50;99.90
44559;DHT22;30270;40.238;18.256;2022-10-31T17:39:02;20.50;99.90
44559;DHT22;30270;40.238;18.256;2022-10-31T17:41:31;20.50;99.90
44559;DHT22;30270;40.238;18.256;2022-10-31T17:43:59;20.40;99.90
44559;DHT22;30270;40.238;18.256;2022-10-31T17:46:27;20.40;99.90
44559;DHT22;30270;40.238;18.256;2022-10-31T17:48:55;20.40;99.90
44559;DHT22;30270;40.238;18.256;2022-10-31T17:51:23;20.40;99.90
44559;DHT22;30270;40.238;18.256;2022-10-31T17:53:51;20.40;99.90
44559;DHT22;30270;40.238;18.256;2022-10-31T17:56:19;20.40;99.90
44559;DHT22;30270;40.238;18.256;2022-10-31T17:58:46;20.40;99.90
44559;DHT22;30270;40.238;18.256;2022-10-31T18:01:15;20.40;99.90
44559;DHT22;30270;40.238;18.256;2022-10-31T18:03:44;20.30;99.90
44559;DHT22;30270;40.238;18.256;2022-10-31T18:06:11;20.30;99.90
44559;DHT22;30270;40.238;18.256;2022-10-31T18:08:45;20.30;99.90
44559;DHT22;30270;40.238;18.256;2022-10-31T18:11:16;20.30;99.90
44559;DHT22;30270;40.238;18.256;2022-10-31T18:13:44;20.30;99.90
44559;DHT22;30270;40.238;18.256;2022-10-31T18:16:14;20.30;99.90
44559;DHT22;30270;40.238;18.256;2022-10-31T18:18:42;20.30;99.90
44559;DHT22;30270;40.238;18.256;2022-10-31T18:21:10;20.20;99.90
44559;DHT22;30270;40.238;18.256;2022-10-31T18:23:37;20.20;99.90
44559;DHT22;30270;40.238;18.256;2022-10-31T18:26:05;20.20;99.90
44559;DHT22;30270;40.238;18.256;2022-10-31T18:28:33;20.20;99.90
44559;DHT22;30270;40.238;18.256;2022-10-31T18:31:02;20.20;99.90
44559;DHT22;30270;40.238;18.256;2022-10-31T18:33:30;20.10;99.90
44559;DHT22;30270;40.238;18.256;2022-10-31T18:36:04;20.10;99.90
44559;DHT22;30270;40.238;18.256;2022-10-31T18:38:32;20.10;99.90
44559;DHT22;30270;40.238;18.256;2022-10-31T18:41:00;20.10;99.90
44559;DHT22;30270;40.238;18.256;2022-10-31T18:43:28;20.10;99.90